sensor_id;sensor_type;location;lat;lon;timestamp;P1;durP1;ratioP1;P2;durP2;ratioP2
7179;SDS011;3631;42.152;24.756;2023-04-02T00:03:00;2.67;;;2.53;;
7179;SDS011;3631;42.152;24.756;2023-04-02T00:09:30;2.43;;;2.33;;
7179;SDS011;3631;42.152;24.756;2023-04-02T00:12:31;3.00;;;2.80;;
7179;SDS011;3631;42.152;24.756;2023-04-02T00:15:22;2.60;;;2.50;;
7179;SDS011;3631;42.152;24.756;2023-04-02T00:18:17;2.73;;;2.53;;
7179;SDS011;3631;42.152;24.756;2023-04-02T00:21:29;2.67;;;2.57;;
7179;SDS011;3631;42.152;24.756;2023-04-02T00:24:38;2.90;;;2.70;;
7179;SDS011;3631;42.152;24.756;2023-04-02T00:27:45;2.60;;;2.50;;
7179;SDS011;3631;42.152;24.756;2023-04-02T00:30:47;3.10;;;2.90;;
7179;SDS011;3631;42.152;24.756;2023-04-02T00:33:46;2.80;;;2.40;;
7179;SDS011;3631;42.152;24.756;2023-04-02T00:36:48;2.40;;;2.17;;
7179;SDS011;3631;42.152;24.756;2023-04-02T00:39:43;2.63;;;2.50;;
7179;SDS011;3631;42.152;24.756;2023-04-02T00:42:46;2.67;;;2.50;;
7179;SDS011;3631;42.152;24.756;2023-04-02T00:45:36;2.13;;;2.03;;
7179;SDS011;3631;42.152;24.756;2023-04-02T00:48:39;2.47;;;2.37;;
7179;SDS011;3631;42.152;24.756;2023-04-02T00:51:41;2.43;;;2.33;;
7179;SDS011;3631;42.152;24.756;2023-04-02T00:54:48;2.20;;;2.10;;
7179;SDS011;3631;42.152;24.756;2023-04-02T00:57:47;2.80;;;2.60;;
7179;SDS011;3631;42.152;24.756;2023-04-02T01:00:41;4.33;;;2.60;;
7179;SDS011;3631;42.152;24.756;2023-04-02T01:03:53;3.27;;;3.07;;
7179;SDS011;3631;42.152;24.756;2023-04-02T01:06:48;3.37;;;3.17;;
7179;SDS011;3631;42.152;24.756;2023-04-02T01:09:59;2.90;;;2.70;;
7179;SDS011;3631;42.152;24.756;2023-04-02T01:13:06;3.50;;;2.70;;
7179;SDS011;3631;42.152;24.756;2023-04-02T01:16:05;3.03;;;2.83;;
7179;SDS011;3631;42.152;24.756;2023-04-02T01:19:20;2.73;;;2.53;;
7179;SDS011;3631;42.152;24.756;2023-04-02T01:22:48;2.93;;;2.73;;
7179;SDS011;3631;42.152;24.756;2023-04-02T01:29:17;2.80;;;2.60;;
7179;SDS011;3631;42.152;24.756;2023-04-02T01:32:14;3.00;;;2.80;;
7179;SDS011;3631;42.152;24.756;2023-04-02T01:35:22;2.57;;;2.47;;
7179;SDS011;3631;42.152;24.756;2023-04-02T01:38:31;2.80;;;2.60;;
7179;SDS011;3631;42.152;24.756;2023-04-02T01:41:37;3.43;;;2.93;;
7179;SDS011;3631;42.152;24.756;2023-04-02T01:48:12;2.97;;;2.57;;
7179;SDS011;3631;42.152;24.756;2023-04-02T01:51:30;6.57;;;2.70;;
7179;SDS011;3631;42.152;24.756;2023-04-02T01:54:27;3.00;;;2.80;;
7179;SDS011;3631;42.152;24.756;2023-04-02T01:57:27;2.67;;;2.47;;
7179;SDS011;3631;42.152;24.756;2023-04-02T02:00:33;2.70;;;2.60;;
7179;SDS011;3631;42.152;24.756;2023-04-02T02:03:48;4.47;;;3.10;;
7179;SDS011;3631;42.152;24.756;2023-04-02T02:06:45;2.90;;;2.70;;
7179;SDS011;3631;42.152;24.756;2023-04-02T02:09:36;2.67;;;2.47;;
7179;SDS011;3631;42.152;24.756;2023-04-02T02:12:39;2.70;;;2.50;;
7179;SDS011;3631;42.152;24.756;2023-04-02T02:15:49;2.80;;;2.60;;
7179;SDS011;3631;42.152;24.756;2023-04-02T02:18:50;2.47;;;2.37;;
7179;SDS011;3631;42.152;24.756;2023-04-02T02:21:45;2.43;;;2.23;;
7179;SDS011;3631;42.152;24.756;2023-04-02T02:24:48;2.37;;;2.20;;
7179;SDS011;3631;42.152;24.756;2023-04-02T02:27:48;3.07;;;2.00;;
7179;SDS011;3631;42.152;24.756;2023-04-02T02:30:47;2.00;;;1.90;;
7179;SDS011;3631;42.152;24.756;2023-04-02T02:33:40;1.70;;;1.60;;
7179;SDS011;3631;42.152;24.756;2023-04-02T02:36:32;1.77;;;1.67;;
7179;SDS011;3631;42.152;24.756;2023-04-02T02:39:28;1.90;;;1.80;;
7179;SDS011;3631;42.152;24.756;2023-04-02T02:42:21;1.93;;;1.83;;
7179;SDS011;3631;42.152;24.756;2023-04-02T02:45:23;1.77;;;1.67;;
7179;SDS011;3631;42.152;24.756;2023-04-02T02:48:45;1.63;;;1.53;;
7179;SDS011;3631;42.152;24.756;2023-04-02T02:52:04;2.57;;;1.60;;
7179;SDS011;3631;42.152;24.756;2023-04-02T02:55:08;1.90;;;1.80;;
7179;SDS011;3631;42.152;24.756;2023-04-02T02:58:05;1.90;;;1.80;;
7179;SDS011;3631;42.152;24.756;2023-04-02T03:00:50;1.80;;;1.70;;
7179;SDS011;3631;42.152;24.756;2023-04-02T03:03:38;2.10;;;2.00;;
7179;SDS011;3631;42.152;24.756;2023-04-02T03:09:51;3.50;;;2.30;;
7179;SDS011;3631;42.152;24.756;2023-04-02T03:12:50;2.50;;;2.40;;
7179;SDS011;3631;42.152;24.756;2023-04-02T03:16:02;3.90;;;2.50;;
7179;SDS011;3631;42.152;24.756;2023-04-02T03:19:26;2.40;;;2.20;;
7179;SDS011;3631;42.152;24.756;2023-04-02T03:29:10;2.20;;;2.10;;
7179;SDS011;3631;42.152;24.756;2023-04-02T03:32:18;2.33;;;2.23;;
7179;SDS011;3631;42.152;24.756;2023-04-02T03:35:18;3.13;;;2.60;;
7179;SDS011;3631;42.152;24.756;2023-04-02T03:38:17;2.60;;;2.40;;
7179;SDS011;3631;42.152;24.756;2023-04-02T03:45:13;2.47;;;2.27;;
7179;SDS011;3631;42.152;24.756;2023-04-02T03:48:20;2.60;;;2.40;;
7179;SDS011;3631;42.152;24.756;2023-04-02T03:51:28;2.27;;;2.17;;
7179;SDS011;3631;42.152;24.756;2023-04-02T03:54:42;2.80;;;2.60;;
7179;SDS011;3631;42.152;24.756;2023-04-02T04:00:51;3.23;;;2.93;;
7179;SDS011;3631;42.152;24.756;2023-04-02T04:03:31;3.20;;;2.83;;
7179;SDS011;3631;42.152;24.756;2023-04-02T04:06:13;4.33;;;3.07;;
7179;SDS011;3631;42.152;24.756;2023-04-02T04:09:19;2.83;;;2.63;;
7179;SDS011;3631;42.152;24.756;2023-04-02T04:12:15;3.87;;;2.73;;
7179;SDS011;3631;42.152;24.756;2023-04-02T04:14:59;3.03;;;2.70;;
7179;SDS011;3631;42.152;24.756;2023-04-02T04:17:44;3.57;;;2.40;;
7179;SDS011;3631;42.152;24.756;2023-04-02T04:20:24;2.70;;;2.50;;
7179;SDS011;3631;42.152;24.756;2023-04-02T04:23:09;2.80;;;2.60;;
7179;SDS011;3631;42.152;24.756;2023-04-02T04:26:03;2.67;;;2.30;;
7179;SDS011;3631;42.152;24.756;2023-04-02T04:28:50;2.80;;;2.33;;
7179;SDS011;3631;42.152;24.756;2023-04-02T04:31:43;2.40;;;2.20;;
7179;SDS011;3631;42.152;24.756;2023-04-02T04:34:20;2.93;;;2.43;;
7179;SDS011;3631;42.152;24.756;2023-04-02T04:37:03;2.60;;;2.50;;
7179;SDS011;3631;42.152;24.756;2023-04-02T04:39:55;2.60;;;2.40;;
7179;SDS011;3631;42.152;24.756;2023-04-02T04:42:31;3.97;;;3.00;;
7179;SDS011;3631;42.152;24.756;2023-04-02T04:45:14;3.30;;;2.53;;
7179;SDS011;3631;42.152;24.756;2023-04-02T04:48:00;4.07;;;2.30;;
7179;SDS011;3631;42.152;24.756;2023-04-02T04:50:38;2.60;;;2.40;;
7179;SDS011;3631;42.152;24.756;2023-04-02T04:53:17;3.23;;;2.67;;
7179;SDS011;3631;42.152;24.756;2023-04-02T04:55:56;3.20;;;3.00;;
7179;SDS011;3631;42.152;24.756;2023-04-02T04:58:35;3.33;;;2.60;;
7179;SDS011;3631;42.152;24.756;2023-04-02T05:01:32;3.83;;;3.43;;
7179;SDS011;3631;42.152;24.756;2023-04-02T05:04:19;5.37;;;3.70;;
7179;SDS011;3631;42.152;24.756;2023-04-02T05:06:59;5.20;;;3.50;;
7179;SDS011;3631;42.152;24.756;2023-04-02T05:09:36;3.47;;;3.17;;
7179;SDS011;3631;42.152;24.756;2023-04-02T05:12:16;2.77;;;2.57;;
7179;SDS011;3631;42.152;24.756;2023-04-02T05:15:09;3.13;;;2.83;;
7179;SDS011;3631;42.152;24.756;2023-04-02T05:18:07;3.57;;;3.13;;
7179;SDS011;3631;42.152;24.756;2023-04-02T05:21:05;4.80;;;3.37;;
7179;SDS011;3631;42.152;24.756;2023-04-02T05:23:45;3.63;;;3.33;;
7179;SDS011;3631;42.152;24.756;2023-04-02T05:26:36;3.83;;;3.33;;
7179;SDS011;3631;42.152;24.756;2023-04-02T05:29:17;3.80;;;3.50;;
7179;SDS011;3631;42.152;24.756;2023-04-02T05:32:00;3.87;;;3.57;;
7179;SDS011;3631;42.152;24.756;2023-04-02T05:34:35;5.00;;;3.03;;
7179;SDS011;3631;42.152;24.756;2023-04-02T05:37:24;3.10;;;2.90;;
7179;SDS011;3631;42.152;24.756;2023-04-02T05:40:13;6.33;;;3.43;;
7179;SDS011;3631;42.152;24.756;2023-04-02T05:42:54;4.17;;;3.80;;
7179;SDS011;3631;42.152;24.756;2023-04-02T05:45:38;3.20;;;3.00;;
7179;SDS011;3631;42.152;24.756;2023-04-02T05:48:26;4.10;;;3.00;;
7179;SDS011;3631;42.152;24.756;2023-04-02T05:51:07;3.20;;;3.00;;
7179;SDS011;3631;42.152;24.756;2023-04-02T05:53:55;3.10;;;2.60;;
7179;SDS011;3631;42.152;24.756;2023-04-02T05:56:30;3.93;;;2.93;;
7179;SDS011;3631;42.152;24.756;2023-04-02T05:59:15;3.03;;;2.57;;
7179;SDS011;3631;42.152;24.756;2023-04-02T06:02:09;3.27;;;2.97;;
7179;SDS011;3631;42.152;24.756;2023-04-02T06:05:11;4.80;;;2.90;;
7179;SDS011;3631;42.152;24.756;2023-04-02T06:08:06;2.93;;;2.63;;
7179;SDS011;3631;42.152;24.756;2023-04-02T06:10:54;2.40;;;2.30;;
7179;SDS011;3631;42.152;24.756;2023-04-02T06:13:50;4.67;;;2.10;;
7179;SDS011;3631;42.152;24.756;2023-04-02T06:16:59;3.55;;;2.35;;
7179;SDS011;3631;42.152;24.756;2023-04-02T06:19:40;2.70;;;2.50;;
7179;SDS011;3631;42.152;24.756;2023-04-02T06:22:48;2.70;;;2.50;;
7179;SDS011;3631;42.152;24.756;2023-04-02T06:25:48;5.40;;;2.97;;
7179;SDS011;3631;42.152;24.756;2023-04-02T06:28:47;3.50;;;2.80;;
7179;SDS011;3631;42.152;24.756;2023-04-02T06:31:32;3.63;;;2.53;;
7179;SDS011;3631;42.152;24.756;2023-04-02T06:34:16;3.13;;;2.73;;
7179;SDS011;3631;42.152;24.756;2023-04-02T06:37:03;3.07;;;2.83;;
7179;SDS011;3631;42.152;24.756;2023-04-02T06:39:56;2.77;;;2.43;;
7179;SDS011;3631;42.152;24.756;2023-04-02T06:42:37;2.83;;;2.60;;
7179;SDS011;3631;42.152;24.756;2023-04-02T06:45:26;3.03;;;2.73;;
7179;SDS011;3631;42.152;24.756;2023-04-02T06:48:11;7.83;;;6.10;;
7179;SDS011;3631;42.152;24.756;2023-04-02T06:51:02;3.10;;;2.87;;
7179;SDS011;3631;42.152;24.756;2023-04-02T06:53:45;3.50;;;2.40;;
7179;SDS011;3631;42.152;24.756;2023-04-02T06:56:38;3.50;;;2.57;;
7179;SDS011;3631;42.152;24.756;2023-04-02T06:59:31;2.53;;;2.33;;
7179;SDS011;3631;42.152;24.756;2023-04-02T07:02:24;2.80;;;2.00;;
7179;SDS011;3631;42.152;24.756;2023-04-02T07:08:41;2.37;;;1.93;;
7179;SDS011;3631;42.152;24.756;2023-04-02T07:11:40;2.37;;;2.00;;
7179;SDS011;3631;42.152;24.756;2023-04-02T07:14:49;2.27;;;1.70;;
7179;SDS011;3631;42.152;24.756;2023-04-02T07:17:38;5.63;;;2.50;;
7179;SDS011;3631;42.152;24.756;2023-04-02T07:20:47;3.10;;;2.37;;
7179;SDS011;3631;42.152;24.756;2023-04-02T07:23:51;3.00;;;2.00;;
7179;SDS011;3631;42.152;24.756;2023-04-02T07:26:52;1.77;;;1.67;;
7179;SDS011;3631;42.152;24.756;2023-04-02T07:29:52;2.70;;;2.50;;
7179;SDS011;3631;42.152;24.756;2023-04-02T07:32:58;2.80;;;2.13;;
7179;SDS011;3631;42.152;24.756;2023-04-02T07:35:48;2.20;;;2.10;;
7179;SDS011;3631;42.152;24.756;2023-04-02T07:38:40;2.20;;;2.00;;
7179;SDS011;3631;42.152;24.756;2023-04-02T07:45:00;2.15;;;2.05;;
7179;SDS011;3631;42.152;24.756;2023-04-02T07:48:09;3.72;;;2.08;;
7179;SDS011;3631;42.152;24.756;2023-04-02T07:51:16;2.00;;;1.90;;
7179;SDS011;3631;42.152;24.756;2023-04-02T07:54:18;2.30;;;2.20;;
7179;SDS011;3631;42.152;24.756;2023-04-02T07:57:11;3.00;;;2.28;;
7179;SDS011;3631;42.152;24.756;2023-04-02T08:00:13;4.03;;;1.50;;
7179;SDS011;3631;42.152;24.756;2023-04-02T08:03:06;2.13;;;1.73;;
7179;SDS011;3631;42.152;24.756;2023-04-02T08:06:01;1.40;;;1.40;;
7179;SDS011;3631;42.152;24.756;2023-04-02T08:09:06;2.13;;;2.03;;
7179;SDS011;3631;42.152;24.756;2023-04-02T08:12:05;1.80;;;1.70;;
7179;SDS011;3631;42.152;24.756;2023-04-02T08:15:17;3.22;;;3.00;;
7179;SDS011;3631;42.152;24.756;2023-04-02T08:21:30;3.38;;;2.03;;
7179;SDS011;3631;42.152;24.756;2023-04-02T08:24:28;2.30;;;2.20;;
7179;SDS011;3631;42.152;24.756;2023-04-02T08:27:44;9.25;;;8.60;;
7179;SDS011;3631;42.152;24.756;2023-04-02T08:30:41;2.83;;;2.63;;
7179;SDS011;3631;42.152;24.756;2023-04-02T08:33:37;2.58;;;2.33;;
7179;SDS011;3631;42.152;24.756;2023-04-02T08:36:47;3.13;;;2.60;;
7179;SDS011;3631;42.152;24.756;2023-04-02T08:39:49;2.38;;;2.10;;
7179;SDS011;3631;42.152;24.756;2023-04-02T08:42:46;2.15;;;1.95;;
7179;SDS011;3631;42.152;24.756;2023-04-02T08:45:52;1.98;;;1.75;;
7179;SDS011;3631;42.152;24.756;2023-04-02T08:48:54;1.83;;;1.17;;
7179;SDS011;3631;42.152;24.756;2023-04-02T08:52:01;1.60;;;1.48;;
7179;SDS011;3631;42.152;24.756;2023-04-02T08:55:01;1.00;;;1.00;;
7179;SDS011;3631;42.152;24.756;2023-04-02T08:58:26;4.30;;;1.20;;
7179;SDS011;3631;42.152;24.756;2023-04-02T09:01:43;1.90;;;0.73;;
7179;SDS011;3631;42.152;24.756;2023-04-02T09:04:57;1.08;;;1.08;;
7179;SDS011;3631;42.152;24.756;2023-04-02T09:07:54;0.60;;;0.60;;
7179;SDS011;3631;42.152;24.756;2023-04-02T09:10:48;1.60;;;1.50;;
7179;SDS011;3631;42.152;24.756;2023-04-02T09:14:04;1.33;;;1.30;;
7179;SDS011;3631;42.152;24.756;2023-04-02T09:17:13;3.10;;;1.23;;
7179;SDS011;3631;42.152;24.756;2023-04-02T09:20:24;2.28;;;1.10;;
7179;SDS011;3631;42.152;24.756;2023-04-02T09:23:39;2.53;;;1.20;;
7179;SDS011;3631;42.152;24.756;2023-04-02T09:26:40;2.05;;;1.23;;
7179;SDS011;3631;42.152;24.756;2023-04-02T09:29:41;2.35;;;1.77;;
7179;SDS011;3631;42.152;24.756;2023-04-02T09:32:51;4.30;;;3.15;;
7179;SDS011;3631;42.152;24.756;2023-04-02T09:38:57;1.60;;;1.50;;
7179;SDS011;3631;42.152;24.756;2023-04-02T09:42:28;1.50;;;1.48;;
7179;SDS011;3631;42.152;24.756;2023-04-02T09:45:18;2.00;;;1.80;;
7179;SDS011;3631;42.152;24.756;2023-04-02T09:48:23;3.47;;;1.90;;
7179;SDS011;3631;42.152;24.756;2023-04-02T09:51:03;3.05;;;1.67;;
7179;SDS011;3631;42.152;24.756;2023-04-02T09:54:10;1.85;;;1.52;;
7179;SDS011;3631;42.152;24.756;2023-04-02T09:59:35;2.22;;;1.30;;
7179;SDS011;3631;42.152;24.756;2023-04-02T10:02:21;1.63;;;1.52;;
7179;SDS011;3631;42.152;24.756;2023-04-02T10:05:36;1.63;;;1.52;;
7179;SDS011;3631;42.152;24.756;2023-04-02T10:11:35;0.80;;;0.80;;
7179;SDS011;3631;42.152;24.756;2023-04-02T10:14:11;1.08;;;1.00;;
7179;SDS011;3631;42.152;24.756;2023-04-02T10:16:58;0.65;;;0.65;;
7179;SDS011;3631;42.152;24.756;2023-04-02T10:19:58;0.68;;;0.68;;
7179;SDS011;3631;42.152;24.756;2023-04-02T10:22:51;3.78;;;2.03;;
7179;SDS011;3631;42.152;24.756;2023-04-02T10:25:26;2.15;;;2.05;;
7179;SDS011;3631;42.152;24.756;2023-04-02T10:28:14;0.90;;;0.90;;
7179;SDS011;3631;42.152;24.756;2023-04-02T10:30:56;3.25;;;1.30;;
7179;SDS011;3631;42.152;24.756;2023-04-02T10:33:39;2.53;;;2.08;;
7179;SDS011;3631;42.152;24.756;2023-04-02T10:36:21;2.45;;;2.33;;
7179;SDS011;3631;42.152;24.756;2023-04-02T10:39:17;1.63;;;1.52;;
7179;SDS011;3631;42.152;24.756;2023-04-02T10:42:18;2.97;;;2.67;;
7179;SDS011;3631;42.152;24.756;2023-04-02T10:48:38;1.70;;;1.60;;
7179;SDS011;3631;42.152;24.756;2023-04-02T10:51:44;1.65;;;1.20;;
7179;SDS011;3631;42.152;24.756;2023-04-02T10:54:49;1.55;;;1.15;;
7179;SDS011;3631;42.152;24.756;2023-04-02T10:57:46;1.85;;;1.00;;
7179;SDS011;3631;42.152;24.756;2023-04-02T11:00:44;1.10;;;1.02;;
7179;SDS011;3631;42.152;24.756;2023-04-02T11:03:55;1.60;;;1.50;;
7179;SDS011;3631;42.152;24.756;2023-04-02T11:07:11;0.98;;;0.98;;
7179;SDS011;3631;42.152;24.756;2023-04-02T11:10:10;0.60;;;0.60;;
7179;SDS011;3631;42.152;24.756;2023-04-02T11:13:06;0.63;;;0.60;;
7179;SDS011;3631;42.152;24.756;2023-04-02T11:16:10;1.17;;;1.08;;
7179;SDS011;3631;42.152;24.756;2023-04-02T11:25:46;0.85;;;0.85;;
7179;SDS011;3631;42.152;24.756;2023-04-02T11:28:56;0.90;;;0.90;;
7179;SDS011;3631;42.152;24.756;2023-04-02T11:32:34;1.00;;;1.00;;
7179;SDS011;3631;42.152;24.756;2023-04-02T11:35:34;0.98;;;0.93;;
7179;SDS011;3631;42.152;24.756;2023-04-02T11:48:38;1.23;;;0.98;;
7179;SDS011;3631;42.152;24.756;2023-04-02T11:54:43;0.90;;;0.90;;
7179;SDS011;3631;42.152;24.756;2023-04-02T11:57:16;1.20;;;1.20;;
7179;SDS011;3631;42.152;24.756;2023-04-02T12:00:02;0.90;;;0.90;;
7179;SDS011;3631;42.152;24.756;2023-04-02T12:02:55;0.88;;;0.88;;
7179;SDS011;3631;42.152;24.756;2023-04-02T12:05:47;0.90;;;0.90;;
7179;SDS011;3631;42.152;24.756;2023-04-02T12:08:24;0.90;;;0.90;;
7179;SDS011;3631;42.152;24.756;2023-04-02T12:11:27;0.75;;;0.75;;
7179;SDS011;3631;42.152;24.756;2023-04-02T12:14:41;1.20;;;1.10;;
7179;SDS011;3631;42.152;24.756;2023-04-02T12:17:36;1.90;;;1.02;;
7179;SDS011;3631;42.152;24.756;2023-04-02T12:20:31;1.50;;;1.35;;
7179;SDS011;3631;42.152;24.756;2023-04-02T12:23:30;1.70;;;1.60;;
7179;SDS011;3631;42.152;24.756;2023-04-02T12:26:06;0.90;;;0.90;;
7179;SDS011;3631;42.152;24.756;2023-04-02T12:29:19;3.90;;;2.10;;
7179;SDS011;3631;42.152;24.756;2023-04-02T12:32:11;2.25;;;1.90;;
7179;SDS011;3631;42.152;24.756;2023-04-02T12:35:04;3.08;;;2.88;;
7179;SDS011;3631;42.152;24.756;2023-04-02T12:38:24;3.17;;;2.20;;
7179;SDS011;3631;42.152;24.756;2023-04-02T12:41:22;1.50;;;1.40;;
7179;SDS011;3631;42.152;24.756;2023-04-02T12:47:28;1.52;;;1.42;;
7179;SDS011;3631;42.152;24.756;2023-04-02T12:50:28;1.38;;;1.20;;
7179;SDS011;3631;42.152;24.756;2023-04-02T12:53:19;3.20;;;3.00;;
7179;SDS011;3631;42.152;24.756;2023-04-02T12:56:17;2.55;;;2.33;;
7179;SDS011;3631;42.152;24.756;2023-04-02T12:59:28;2.78;;;2.58;;
7179;SDS011;3631;42.152;24.756;2023-04-02T13:02:30;2.08;;;1.98;;
7179;SDS011;3631;42.152;24.756;2023-04-02T13:05:32;2.30;;;1.70;;
7179;SDS011;3631;42.152;24.756;2023-04-02T13:08:25;3.03;;;1.17;;
7179;SDS011;3631;42.152;24.756;2023-04-02T13:11:21;1.30;;;1.20;;
7179;SDS011;3631;42.152;24.756;2023-04-02T13:14:17;1.42;;;1.33;;
7179;SDS011;3631;42.152;24.756;2023-04-02T13:20:54;2.38;;;1.90;;
7179;SDS011;3631;42.152;24.756;2023-04-02T13:23:58;1.92;;;1.77;;
7179;SDS011;3631;42.152;24.756;2023-04-02T13:26:49;5.85;;;5.07;;
7179;SDS011;3631;42.152;24.756;2023-04-02T13:29:36;7.13;;;5.72;;
7179;SDS011;3631;42.152;24.756;2023-04-02T13:32:52;6.68;;;6.07;;
7179;SDS011;3631;42.152;24.756;2023-04-02T13:36:05;4.55;;;3.08;;
7179;SDS011;3631;42.152;24.756;2023-04-02T13:39:06;7.30;;;4.95;;
7179;SDS011;3631;42.152;24.756;2023-04-02T13:42:22;1.10;;;1.10;;
7179;SDS011;3631;42.152;24.756;2023-04-02T13:45:24;4.57;;;1.45;;
7179;SDS011;3631;42.152;24.756;2023-04-02T13:48:33;1.85;;;1.70;;
7179;SDS011;3631;42.152;24.756;2023-04-02T13:52:00;1.30;;;1.20;;
7179;SDS011;3631;42.152;24.756;2023-04-02T13:55:17;2.20;;;1.40;;
7179;SDS011;3631;42.152;24.756;2023-04-02T13:58:23;1.52;;;1.42;;
7179;SDS011;3631;42.152;24.756;2023-04-02T14:01:49;1.23;;;1.23;;
7179;SDS011;3631;42.152;24.756;2023-04-02T14:04:52;2.40;;;1.10;;
7179;SDS011;3631;42.152;24.756;2023-04-02T14:08:14;2.55;;;1.88;;
7179;SDS011;3631;42.152;24.756;2023-04-02T14:11:25;1.70;;;1.60;;
7179;SDS011;3631;42.152;24.756;2023-04-02T14:14:36;3.13;;;1.35;;
7179;SDS011;3631;42.152;24.756;2023-04-02T14:17:55;1.33;;;1.23;;
7179;SDS011;3631;42.152;24.756;2023-04-02T14:21:08;1.15;;;1.15;;
7179;SDS011;3631;42.152;24.756;2023-04-02T14:27:51;1.30;;;1.20;;
7179;SDS011;3631;42.152;24.756;2023-04-02T14:30:57;2.10;;;1.05;;
7179;SDS011;3631;42.152;24.756;2023-04-02T14:34:01;0.95;;;0.95;;
7179;SDS011;3631;42.152;24.756;2023-04-02T14:37:02;0.93;;;0.90;;
7179;SDS011;3631;42.152;24.756;2023-04-02T14:40:22;1.50;;;1.40;;
7179;SDS011;3631;42.152;24.756;2023-04-02T14:43:34;1.55;;;1.10;;
7179;SDS011;3631;42.152;24.756;2023-04-02T14:46:45;1.13;;;1.13;;
7179;SDS011;3631;42.152;24.756;2023-04-02T14:50:04;1.10;;;1.10;;
7179;SDS011;3631;42.152;24.756;2023-04-02T14:53:17;1.30;;;1.30;;
7179;SDS011;3631;42.152;24.756;2023-04-02T14:56:31;1.10;;;1.10;;
7179;SDS011;3631;42.152;24.756;2023-04-02T14:59:51;1.10;;;1.00;;
7179;SDS011;3631;42.152;24.756;2023-04-02T15:02:41;0.90;;;0.90;;
7179;SDS011;3631;42.152;24.756;2023-04-02T15:05:43;1.23;;;1.17;;
7179;SDS011;3631;42.152;24.756;2023-04-02T15:08:53;1.58;;;1.48;;
7179;SDS011;3631;42.152;24.756;2023-04-02T15:11:57;1.38;;;1.27;;
7179;SDS011;3631;42.152;24.756;2023-04-02T15:14:57;1.60;;;1.50;;
7179;SDS011;3631;42.152;24.756;2023-04-02T15:17:42;1.00;;;1.00;;
7179;SDS011;3631;42.152;24.756;2023-04-02T15:20:18;1.38;;;0.85;;
7179;SDS011;3631;42.152;24.756;2023-04-02T15:23:06;1.83;;;0.93;;
7179;SDS011;3631;42.152;24.756;2023-04-02T15:26:09;1.65;;;1.00;;
7179;SDS011;3631;42.152;24.756;2023-04-02T15:29:05;1.25;;;1.23;;
7179;SDS011;3631;42.152;24.756;2023-04-02T15:32:13;4.65;;;4.18;;
7179;SDS011;3631;42.152;24.756;2023-04-02T17:12:37;3.13;;;2.93;;
7179;SDS011;3631;42.152;24.756;2023-04-02T17:15:18;2.75;;;2.53;;
7179;SDS011;3631;42.152;24.756;2023-04-02T17:18:07;2.22;;;1.92;;
7179;SDS011;3631;42.152;24.756;2023-04-02T17:20:54;2.10;;;1.83;;
7179;SDS011;3631;42.152;24.756;2023-04-02T17:23:43;3.50;;;2.30;;
7179;SDS011;3631;42.152;24.756;2023-04-02T17:26:26;3.25;;;2.30;;
7179;SDS011;3631;42.152;24.756;2023-04-02T17:29:18;2.95;;;2.38;;
7179;SDS011;3631;42.152;24.756;2023-04-02T17:32:10;2.60;;;2.40;;
7179;SDS011;3631;42.152;24.756;2023-04-02T17:34:53;3.80;;;3.15;;
7179;SDS011;3631;42.152;24.756;2023-04-02T17:37:53;3.15;;;2.95;;
7179;SDS011;3631;42.152;24.756;2023-04-02T17:40:45;2.20;;;2.10;;
7179;SDS011;3631;42.152;24.756;2023-04-02T17:43:33;2.00;;;1.90;;
7179;SDS011;3631;42.152;24.756;2023-04-02T17:46:38;2.22;;;1.73;;
7179;SDS011;3631;42.152;24.756;2023-04-02T17:49:34;2.35;;;2.15;;
7179;SDS011;3631;42.152;24.756;2023-04-02T17:52:30;1.95;;;1.85;;
7179;SDS011;3631;42.152;24.756;2023-04-02T17:55:14;3.28;;;2.30;;
7179;SDS011;3631;42.152;24.756;2023-04-02T17:57:58;2.67;;;2.47;;
7179;SDS011;3631;42.152;24.756;2023-04-02T18:00:59;3.30;;;2.40;;
7179;SDS011;3631;42.152;24.756;2023-04-02T18:07:09;2.60;;;2.40;;
7179;SDS011;3631;42.152;24.756;2023-04-02T18:10:12;2.60;;;2.40;;
7179;SDS011;3631;42.152;24.756;2023-04-02T18:12:54;5.67;;;5.07;;
7179;SDS011;3631;42.152;24.756;2023-04-02T18:18:48;6.65;;;4.78;;
7179;SDS011;3631;42.152;24.756;2023-04-02T18:21:40;4.72;;;4.22;;
7179;SDS011;3631;42.152;24.756;2023-04-02T18:24:35;3.43;;;3.13;;
7179;SDS011;3631;42.152;24.756;2023-04-02T18:27:33;6.03;;;3.45;;
7179;SDS011;3631;42.152;24.756;2023-04-02T18:30:20;3.37;;;3.07;;
7179;SDS011;3631;42.152;24.756;2023-04-02T18:33:09;3.97;;;3.60;;
7179;SDS011;3631;42.152;24.756;2023-04-02T18:35:58;5.07;;;3.25;;
7179;SDS011;3631;42.152;24.756;2023-04-02T18:38:52;4.17;;;3.87;;
7179;SDS011;3631;42.152;24.756;2023-04-02T18:41:44;5.00;;;4.60;;
7179;SDS011;3631;42.152;24.756;2023-04-02T18:44:29;5.17;;;4.67;;
7179;SDS011;3631;42.152;24.756;2023-04-02T18:47:18;4.90;;;4.10;;
7179;SDS011;3631;42.152;24.756;2023-04-02T18:50:08;4.03;;;3.63;;
7179;SDS011;3631;42.152;24.756;2023-04-02T18:52:46;4.50;;;3.70;;
7179;SDS011;3631;42.152;24.756;2023-04-02T18:55:20;4.30;;;3.30;;
7179;SDS011;3631;42.152;24.756;2023-04-02T18:57:54;3.97;;;3.67;;
7179;SDS011;3631;42.152;24.756;2023-04-02T19:00:30;2.73;;;2.50;;
7179;SDS011;3631;42.152;24.756;2023-04-02T19:03:09;5.17;;;3.70;;
7179;SDS011;3631;42.152;24.756;2023-04-02T19:05:49;4.13;;;3.27;;
7179;SDS011;3631;42.152;24.756;2023-04-02T19:08:27;4.10;;;3.10;;
7179;SDS011;3631;42.152;24.756;2023-04-02T19:11:10;4.70;;;3.60;;
7179;SDS011;3631;42.152;24.756;2023-04-02T19:13:55;5.40;;;4.10;;
7179;SDS011;3631;42.152;24.756;2023-04-02T19:19:57;4.07;;;2.47;;
7179;SDS011;3631;42.152;24.756;2023-04-02T19:22:41;3.30;;;3.00;;
7179;SDS011;3631;42.152;24.756;2023-04-02T19:25:35;4.43;;;2.90;;
7179;SDS011;3631;42.152;24.756;2023-04-02T19:28:21;4.50;;;4.10;;
7179;SDS011;3631;42.152;24.756;2023-04-02T19:31:09;6.43;;;5.30;;
7179;SDS011;3631;42.152;24.756;2023-04-02T19:33:58;5.53;;;4.93;;
7179;SDS011;3631;42.152;24.756;2023-04-02T19:36:48;7.57;;;5.23;;
7179;SDS011;3631;42.152;24.756;2023-04-02T19:42:37;6.03;;;4.13;;
7179;SDS011;3631;42.152;24.756;2023-04-02T19:45:34;6.30;;;3.60;;
7179;SDS011;3631;42.152;24.756;2023-04-02T19:48:10;3.97;;;3.67;;
7179;SDS011;3631;42.152;24.756;2023-04-02T19:50:54;4.43;;;3.33;;
7179;SDS011;3631;42.152;24.756;2023-04-02T19:53:30;3.07;;;2.80;;
7179;SDS011;3631;42.152;24.756;2023-04-02T19:56:03;3.67;;;3.37;;
7179;SDS011;3631;42.152;24.756;2023-04-02T19:58:51;4.23;;;2.73;;
7179;SDS011;3631;42.152;24.756;2023-04-02T20:01:39;3.10;;;2.90;;
7179;SDS011;3631;42.152;24.756;2023-04-02T20:04:35;3.87;;;2.97;;
7179;SDS011;3631;42.152;24.756;2023-04-02T20:07:13;5.67;;;3.43;;
7179;SDS011;3631;42.152;24.756;2023-04-02T20:09:58;3.37;;;3.07;;
7179;SDS011;3631;42.152;24.756;2023-04-02T20:12:55;2.87;;;2.57;;
7179;SDS011;3631;42.152;24.756;2023-04-02T20:15:45;3.57;;;3.27;;
7179;SDS011;3631;42.152;24.756;2023-04-02T20:18:32;3.50;;;3.20;;
7179;SDS011;3631;42.152;24.756;2023-04-02T20:21:05;5.13;;;3.03;;
7179;SDS011;3631;42.152;24.756;2023-04-02T20:23:36;3.70;;;3.40;;
7179;SDS011;3631;42.152;24.756;2023-04-02T20:26:11;5.80;;;3.80;;
7179;SDS011;3631;42.152;24.756;2023-04-02T20:28:45;5.40;;;4.10;;
7179;SDS011;3631;42.152;24.756;2023-04-02T20:37:36;5.33;;;4.40;;
7179;SDS011;3631;42.152;24.756;2023-04-02T20:40:34;5.27;;;4.37;;
7179;SDS011;3631;42.152;24.756;2023-04-02T20:47:09;7.13;;;4.10;;
7179;SDS011;3631;42.152;24.756;2023-04-02T20:50:17;5.97;;;4.07;;
7179;SDS011;3631;42.152;24.756;2023-04-02T20:53:26;6.10;;;4.10;;
7179;SDS011;3631;42.152;24.756;2023-04-02T20:56:23;4.27;;;3.87;;
7179;SDS011;3631;42.152;24.756;2023-04-02T20:59:34;5.30;;;3.57;;
7179;SDS011;3631;42.152;24.756;2023-04-02T21:02:34;3.70;;;3.37;;
7179;SDS011;3631;42.152;24.756;2023-04-02T21:05:47;3.63;;;3.37;;
7179;SDS011;3631;42.152;24.756;2023-04-02T21:08:45;4.10;;;3.70;;
7179;SDS011;3631;42.152;24.756;2023-04-02T21:11:39;3.50;;;3.20;;
7179;SDS011;3631;42.152;24.756;2023-04-02T21:14:49;3.93;;;3.50;;
7179;SDS011;3631;42.152;24.756;2023-04-02T21:17:51;3.93;;;3.57;;
7179;SDS011;3631;42.152;24.756;2023-04-02T21:21:04;4.50;;;3.70;;